sensor_id;sensor_type;location;lat;lon;timestamp;pressure;altitude;pressure_sealevel;temperature;humidity
21361;BME280;10839;43.206;23.550;2023-04-24T00:00:55;96731.66;;;16.19;50.31
21361;BME280;10839;43.206;23.550;2023-04-24T00:03:27;96745.63;;;15.99;50.76
21361;BME280;10839;43.206;23.550;2023-04-24T00:05:56;96733.69;;;16.12;50.58
21361;BME280;10839;43.206;23.550;2023-04-24T00:08:22;96744.56;;;16.12;50.57
21361;BME280;10839;43.206;23.550;2023-04-24T00:10:49;96726.34;;;16.12;50.78
21361;BME280;10839;43.206;23.550;2023-04-24T00:13:15;96734.97;;;16.09;50.97
21361;BME280;10839;43.206;23.550;2023-04-24T00:15:41;96720.22;;;16.17;50.49
21361;BME280;10839;43.206;23.550;2023-04-24T00:18:07;96724.75;;;16.00;50.88
21361;BME280;10839;43.206;23.550;2023-04-24T00:20:32;96740.81;;;15.90;51.26
21361;BME280;10839;43.206;23.550;2023-04-24T00:23:00;96745.97;;;16.03;51.05
21361;BME280;10839;43.206;23.550;2023-04-24T00:25:26;96743.84;;;16.05;51.22
21361;BME280;10839;43.206;23.550;2023-04-24T00:27:52;96763.66;;;16.17;50.75
21361;BME280;10839;43.206;23.550;2023-04-24T00:30:18;96762.00;;;16.16;50.94
21361;BME280;10839;43.206;23.550;2023-04-24T00:32:43;96768.13;;;16.23;50.63
21361;BME280;10839;43.206;23.550;2023-04-24T00:35:09;96734.97;;;16.21;50.83
21361;BME280;10839;43.206;23.550;2023-04-24T00:37:35;96749.72;;;16.25;51.06
21361;BME280;10839;43.206;23.550;2023-04-24T00:40:02;96759.75;;;16.24;50.98
21361;BME280;10839;43.206;23.550;2023-04-24T00:42:28;96749.16;;;16.11;51.75
21361;BME280;10839;43.206;23.550;2023-04-24T00:44:56;96756.84;;;16.03;51.97
21361;BME280;10839;43.206;23.550;2023-04-24T00:47:22;96745.47;;;16.17;51.73
21361;BME280;10839;43.206;23.550;2023-04-24T00:49:48;96737.47;;;16.11;52.01
21361;BME280;10839;43.206;23.550;2023-04-24T00:52:14;96754.13;;;16.03;53.91
21361;BME280;10839;43.206;23.550;2023-04-24T00:54:44;96736.41;;;16.12;52.85
21361;BME280;10839;43.206;23.550;2023-04-24T00:57:11;96741.59;;;16.13;52.76
21361;BME280;10839;43.206;23.550;2023-04-24T00:59:38;96729.41;;;16.16;52.83
21361;BME280;10839;43.206;23.550;2023-04-24T01:02:07;96738.00;;;16.24;52.68
21361;BME280;10839;43.206;23.550;2023-04-24T01:04:34;96729.13;;;16.29;52.78
21361;BME280;10839;43.206;23.550;2023-04-24T01:07:00;96724.31;;;16.31;52.52
21361;BME280;10839;43.206;23.550;2023-04-24T01:09:26;96726.66;;;16.27;52.76
21361;BME280;10839;43.206;23.550;2023-04-24T01:11:52;96728.47;;;16.22;52.95
21361;BME280;10839;43.206;23.550;2023-04-24T01:14:18;96727.78;;;16.15;52.85
21361;BME280;10839;43.206;23.550;2023-04-24T01:16:44;96730.19;;;16.00;53.61
21361;BME280;10839;43.206;23.550;2023-04-24T01:19:11;96736.41;;;16.12;53.04
21361;BME280;10839;43.206;23.550;2023-04-24T01:21:38;96740.28;;;16.16;53.30
21361;BME280;10839;43.206;23.550;2023-04-24T01:24:06;96755.41;;;16.12;53.38
21361;BME280;10839;43.206;23.550;2023-04-24T01:26:33;96781.47;;;15.32;59.20
21361;BME280;10839;43.206;23.550;2023-04-24T01:28:59;96785.66;;;14.75;62.71
21361;BME280;10839;43.206;23.550;2023-04-24T01:31:25;96795.81;;;14.32;64.73
21361;BME280;10839;43.206;23.550;2023-04-24T01:33:52;96807.53;;;14.26;66.16
21361;BME280;10839;43.206;23.550;2023-04-24T01:36:18;96801.00;;;13.73;69.59
21361;BME280;10839;43.206;23.550;2023-04-24T01:38:45;96797.72;;;13.22;72.92
21361;BME280;10839;43.206;23.550;2023-04-24T01:41:10;96804.38;;;12.88;75.19
21361;BME280;10839;43.206;23.550;2023-04-24T01:43:36;96810.28;;;13.10;74.69
21361;BME280;10839;43.206;23.550;2023-04-24T01:46:02;96824.78;;;12.84;77.17
21361;BME280;10839;43.206;23.550;2023-04-24T01:48:28;96821.75;;;12.67;78.68
21361;BME280;10839;43.206;23.550;2023-04-24T01:50:56;96822.16;;;12.64;79.70
21361;BME280;10839;43.206;23.550;2023-04-24T01:53:22;96832.91;;;12.77;79.34
21361;BME280;10839;43.206;23.550;2023-04-24T01:55:48;96837.44;;;12.39;83.05
21361;BME280;10839;43.206;23.550;2023-04-24T01:58:14;96833.09;;;12.38;83.57
21361;BME280;10839;43.206;23.550;2023-04-24T02:00:40;96835.72;;;12.51;83.63
21361;BME280;10839;43.206;23.550;2023-04-24T02:03:05;96830.66;;;12.30;85.24
21361;BME280;10839;43.206;23.550;2023-04-24T02:05:31;96819.72;;;12.56;83.66
21361;BME280;10839;43.206;23.550;2023-04-24T02:07:57;96821.31;;;12.70;83.12
21361;BME280;10839;43.206;23.550;2023-04-24T02:10:23;96817.72;;;12.45;84.85
21361;BME280;10839;43.206;23.550;2023-04-24T02:12:50;96804.09;;;12.27;86.23
21361;BME280;10839;43.206;23.550;2023-04-24T02:15:16;96816.78;;;12.20;87.14
21361;BME280;10839;43.206;23.550;2023-04-24T02:17:43;96813.28;;;12.13;87.89
21361;BME280;10839;43.206;23.550;2023-04-24T02:20:09;96811.84;;;12.11;88.97
21361;BME280;10839;43.206;23.550;2023-04-24T02:22:37;96808.13;;;12.05;89.30
21361;BME280;10839;43.206;23.550;2023-04-24T02:25:03;96805.47;;;11.92;90.54
21361;BME280;10839;43.206;23.550;2023-04-24T02:27:29;96795.09;;;11.89;91.27
21361;BME280;10839;43.206;23.550;2023-04-24T02:29:56;96798.00;;;11.94;91.19
21361;BME280;10839;43.206;23.550;2023-04-24T02:32:22;96794.56;;;12.18;89.64
21361;BME280;10839;43.206;23.550;2023-04-24T02:34:47;96791.63;;;12.26;88.86
21361;BME280;10839;43.206;23.550;2023-04-24T02:37:13;96779.69;;;12.03;91.16
21361;BME280;10839;43.206;23.550;2023-04-24T02:39:39;96759.25;;;11.82;93.15
21361;BME280;10839;43.206;23.550;2023-04-24T02:42:05;96758.63;;;11.80;93.36
21361;BME280;10839;43.206;23.550;2023-04-24T02:44:31;96756.97;;;11.79;94.13
21361;BME280;10839;43.206;23.550;2023-04-24T02:46:57;96753.66;;;11.77;94.11
21361;BME280;10839;43.206;23.550;2023-04-24T02:49:23;96756.09;;;11.92;93.72
21361;BME280;10839;43.206;23.550;2023-04-24T02:51:49;96749.47;;;11.81;94.86
21361;BME280;10839;43.206;23.550;2023-04-24T02:54:14;96764.59;;;11.95;93.40
21361;BME280;10839;43.206;23.550;2023-04-24T02:56:40;96771.72;;;12.27;91.33
21361;BME280;10839;43.206;23.550;2023-04-24T02:59:07;96770.91;;;12.20;91.54
21361;BME280;10839;43.206;23.550;2023-04-24T03:01:33;96775.41;;;11.82;94.01
21361;BME280;10839;43.206;23.550;2023-04-24T03:03:59;96780.56;;;11.90;93.38
21361;BME280;10839;43.206;23.550;2023-04-24T03:06:25;96785.78;;;11.85;93.49
21361;BME280;10839;43.206;23.550;2023-04-24T03:08:53;96794.28;;;11.82;94.50
21361;BME280;10839;43.206;23.550;2023-04-24T03:11:19;96808.78;;;11.81;94.64
21361;BME280;10839;43.206;23.550;2023-04-24T03:13:45;96807.94;;;11.94;94.24
21361;BME280;10839;43.206;23.550;2023-04-24T03:16:11;96808.59;;;11.76;94.72
21361;BME280;10839;43.206;23.550;2023-04-24T03:18:37;96811.28;;;11.63;96.03
21361;BME280;10839;43.206;23.550;2023-04-24T03:21:05;96808.38;;;11.71;96.21
21361;BME280;10839;43.206;23.550;2023-04-24T03:23:31;96808.59;;;11.63;95.98
21361;BME280;10839;43.206;23.550;2023-04-24T03:25:57;96814.81;;;11.83;95.15
21361;BME280;10839;43.206;23.550;2023-04-24T03:28:24;96808.78;;;11.81;95.40
21361;BME280;10839;43.206;23.550;2023-04-24T03:30:59;96814.19;;;11.75;95.95
21361;BME280;10839;43.206;23.550;2023-04-24T03:33:30;96812.94;;;11.84;95.13
21361;BME280;10839;43.206;23.550;2023-04-24T03:36:01;96808.38;;;11.84;95.58
21361;BME280;10839;43.206;23.550;2023-04-24T03:38:34;96817.06;;;11.99;94.17
21361;BME280;10839;43.206;23.550;2023-04-24T03:41:16;96810.84;;;11.92;95.24
21361;BME280;10839;43.206;23.550;2023-04-24T03:43:47;96809.16;;;12.04;94.71
21361;BME280;10839;43.206;23.550;2023-04-24T03:46:14;96825.31;;;12.17;93.07
21361;BME280;10839;43.206;23.550;2023-04-24T03:48:45;96814.81;;;11.83;94.66
21361;BME280;10839;43.206;23.550;2023-04-24T03:51:12;96823.06;;;12.01;93.85
21361;BME280;10839;43.206;23.550;2023-04-24T03:53:42;96813.09;;;12.02;93.53
21361;BME280;10839;43.206;23.550;2023-04-24T03:56:10;96825.72;;;12.08;93.25
21361;BME280;10839;43.206;23.550;2023-04-24T03:58:37;96821.13;;;12.21;92.88
21361;BME280;10839;43.206;23.550;2023-04-24T04:01:04;96826.47;;;12.34;92.10
21361;BME280;10839;43.206;23.550;2023-04-24T04:03:41;96817.06;;;11.99;93.30
21361;BME280;10839;43.206;23.550;2023-04-24T04:06:07;96797.22;;;11.74;95.16
21361;BME280;10839;43.206;23.550;2023-04-24T04:08:33;96800.09;;;11.79;95.38
21361;BME280;10839;43.206;23.550;2023-04-24T04:11:00;96805.72;;;11.78;96.22
21361;BME280;10839;43.206;23.550;2023-04-24T04:13:26;96797.19;;;11.87;95.06
21361;BME280;10839;43.206;23.550;2023-04-24T04:15:52;96806.25;;;12.06;94.00
21361;BME280;10839;43.206;23.550;2023-04-24T04:18:18;96815.72;;;12.21;92.03
21361;BME280;10839;43.206;23.550;2023-04-24T04:20:44;96817.41;;;12.22;92.10
21361;BME280;10839;43.206;23.550;2023-04-24T04:23:15;96833.47;;;12.48;90.31
21361;BME280;10839;43.206;23.550;2023-04-24T04:25:54;96829.72;;;12.49;90.24
21361;BME280;10839;43.206;23.550;2023-04-24T04:28:25;96816.41;;;12.54;89.10
21361;BME280;10839;43.206;23.550;2023-04-24T04:30:51;96831.97;;;12.59;89.43
21361;BME280;10839;43.206;23.550;2023-04-24T04:33:21;96822.13;;;12.77;88.48
21361;BME280;10839;43.206;23.550;2023-04-24T04:35:47;96808.81;;;12.82;87.17
21361;BME280;10839;43.206;23.550;2023-04-24T04:38:19;96813.31;;;12.88;86.49
21361;BME280;10839;43.206;23.550;2023-04-24T04:40:57;96823.69;;;12.92;86.19
21361;BME280;10839;43.206;23.550;2023-04-24T04:43:26;96809.97;;;13.24;83.94
21361;BME280;10839;43.206;23.550;2023-04-24T04:45:53;96802.53;;;13.20;82.68
21361;BME280;10839;43.206;23.550;2023-04-24T04:48:41;96795.88;;;13.22;81.55
21361;BME280;10839;43.206;23.550;2023-04-24T04:51:07;96786.13;;;13.39;80.66
21361;BME280;10839;43.206;23.550;2023-04-24T04:53:33;96786.31;;;13.44;80.74
21361;BME280;10839;43.206;23.550;2023-04-24T04:55:59;96780.38;;;13.36;81.21
21361;BME280;10839;43.206;23.550;2023-04-24T04:58:32;96789.44;;;13.66;79.22
21361;BME280;10839;43.206;23.550;2023-04-24T05:01:00;96783.22;;;13.65;78.24
21361;BME280;10839;43.206;23.550;2023-04-24T05:03:34;96775.25;;;13.70;76.19
21361;BME280;10839;43.206;23.550;2023-04-24T05:06:06;96783.88;;;13.61;76.68
21361;BME280;10839;43.206;23.550;2023-04-24T05:08:36;96792.41;;;13.58;78.90
21361;BME280;10839;43.206;23.550;2023-04-24T05:11:05;96778.34;;;13.49;79.42
21361;BME280;10839;43.206;23.550;2023-04-24T05:13:32;96788.06;;;13.08;83.33
21361;BME280;10839;43.206;23.550;2023-04-24T05:15:58;96790.88;;;12.88;85.02
21361;BME280;10839;43.206;23.550;2023-04-24T05:18:25;96798.41;;;12.79;86.34
21361;BME280;10839;43.206;23.550;2023-04-24T05:20:51;96797.50;;;12.92;84.78
21361;BME280;10839;43.206;23.550;2023-04-24T05:23:17;96801.44;;;13.27;82.50
21361;BME280;10839;43.206;23.550;2023-04-24T05:25:46;96784.28;;;12.84;84.33
21361;BME280;10839;43.206;23.550;2023-04-24T05:28:13;96781.41;;;13.35;82.35
21361;BME280;10839;43.206;23.550;2023-04-24T05:30:39;96787.19;;;12.82;83.04
21361;BME280;10839;43.206;23.550;2023-04-24T05:33:06;96779.59;;;12.98;81.97
21361;BME280;10839;43.206;23.550;2023-04-24T05:35:34;96773.69;;;13.14;80.51
21361;BME280;10839;43.206;23.550;2023-04-24T05:38:00;96798.19;;;13.19;80.82
21361;BME280;10839;43.206;23.550;2023-04-24T05:40:26;96790.91;;;13.44;79.92
21361;BME280;10839;43.206;23.550;2023-04-24T05:42:52;96777.00;;;14.96;72.59
21361;BME280;10839;43.206;23.550;2023-04-24T05:45:19;96780.84;;;15.18;70.65
21361;BME280;10839;43.206;23.550;2023-04-24T05:47:45;96765.31;;;14.84;70.94
21361;BME280;10839;43.206;23.550;2023-04-24T05:50:11;96779.06;;;14.71;71.46
21361;BME280;10839;43.206;23.550;2023-04-24T05:52:37;96774.00;;;14.45;73.33
21361;BME280;10839;43.206;23.550;2023-04-24T05:55:11;96783.53;;;14.48;72.55
21361;BME280;10839;43.206;23.550;2023-04-24T05:57:39;96777.44;;;14.34;71.38
21361;BME280;10839;43.206;23.550;2023-04-24T06:00:06;96764.72;;;14.82;70.55
21361;BME280;10839;43.206;23.550;2023-04-24T06:02:39;96767.28;;;14.77;69.87
21361;BME280;10839;43.206;23.550;2023-04-24T06:05:08;96763.03;;;16.26;65.30
21361;BME280;10839;43.206;23.550;2023-04-24T06:07:33;96775.69;;;15.28;67.48
21361;BME280;10839;43.206;23.550;2023-04-24T06:10:03;96773.38;;;15.02;70.10
21361;BME280;10839;43.206;23.550;2023-04-24T06:12:36;96767.19;;;14.54;74.61
21361;BME280;10839;43.206;23.550;2023-04-24T06:15:09;96765.59;;;15.59;72.36
21361;BME280;10839;43.206;23.550;2023-04-24T06:18:10;96765.38;;;15.49;73.24
21361;BME280;10839;43.206;23.550;2023-04-24T06:20:38;96771.31;;;14.86;77.60
21361;BME280;10839;43.206;23.550;2023-04-24T06:23:04;96765.13;;;14.38;81.44
21361;BME280;10839;43.206;23.550;2023-04-24T06:25:32;96764.28;;;14.20;83.94
21361;BME280;10839;43.206;23.550;2023-04-24T06:27:58;96763.91;;;14.16;84.30
21361;BME280;10839;43.206;23.550;2023-04-24T06:30:24;96765.91;;;14.27;83.91
21361;BME280;10839;43.206;23.550;2023-04-24T06:32:50;96778.66;;;14.02;85.96
21361;BME280;10839;43.206;23.550;2023-04-24T06:35:16;96769.31;;;14.16;85.18
21361;BME280;10839;43.206;23.550;2023-04-24T06:37:42;96756.19;;;14.01;87.45
21361;BME280;10839;43.206;23.550;2023-04-24T06:40:09;96756.72;;;14.58;83.02
21361;BME280;10839;43.206;23.550;2023-04-24T06:42:36;96768.88;;;14.19;86.25
21361;BME280;10839;43.206;23.550;2023-04-24T06:45:03;96764.06;;;14.03;87.12
21361;BME280;10839;43.206;23.550;2023-04-24T06:47:29;96761.06;;;14.11;88.54
21361;BME280;10839;43.206;23.550;2023-04-24T06:49:55;96764.81;;;14.46;86.74
21361;BME280;10839;43.206;23.550;2023-04-24T06:52:21;96759.56;;;14.33;87.51
21361;BME280;10839;43.206;23.550;2023-04-24T06:54:47;96773.91;;;14.52;87.28
21361;BME280;10839;43.206;23.550;2023-04-24T06:57:13;96773.56;;;14.89;84.19
21361;BME280;10839;43.206;23.550;2023-04-24T06:59:39;96785.16;;;15.61;80.85
21361;BME280;10839;43.206;23.550;2023-04-24T07:02:04;96786.22;;;16.06;77.89
21361;BME280;10839;43.206;23.550;2023-04-24T07:04:31;96795.50;;;16.33;73.92
21361;BME280;10839;43.206;23.550;2023-04-24T07:06:57;96791.28;;;15.91;72.24
21361;BME280;10839;43.206;23.550;2023-04-24T07:09:24;96782.44;;;15.72;74.76
21361;BME280;10839;43.206;23.550;2023-04-24T07:11:51;96787.16;;;16.00;74.67
21361;BME280;10839;43.206;23.550;2023-04-24T07:14:17;96783.34;;;16.12;72.27
21361;BME280;10839;43.206;23.550;2023-04-24T07:16:43;96787.09;;;16.34;70.73
21361;BME280;10839;43.206;23.550;2023-04-24T07:19:09;96786.81;;;16.87;68.53
21361;BME280;10839;43.206;23.550;2023-04-24T07:21:35;96785.59;;;16.78;68.80
21361;BME280;10839;43.206;23.550;2023-04-24T07:24:01;96772.41;;;17.98;65.60
21361;BME280;10839;43.206;23.550;2023-04-24T07:26:29;96775.50;;;18.66;61.91
21361;BME280;10839;43.206;23.550;2023-04-24T07:28:55;96780.50;;;18.74;60.53
21361;BME280;10839;43.206;23.550;2023-04-24T07:31:21;96775.75;;;18.86;61.13
21361;BME280;10839;43.206;23.550;2023-04-24T07:33:48;96767.50;;;19.29;58.89
21361;BME280;10839;43.206;23.550;2023-04-24T07:36:14;96771.31;;;19.33;58.35
21361;BME280;10839;43.206;23.550;2023-04-24T07:38:45;96784.34;;;19.84;55.79
21361;BME280;10839;43.206;23.550;2023-04-24T07:41:14;96780.44;;;19.75;56.28
21361;BME280;10839;43.206;23.550;2023-04-24T07:43:41;96785.63;;;22.07;50.52
21361;BME280;10839;43.206;23.550;2023-04-24T07:46:07;96793.94;;;22.81;48.20
21361;BME280;10839;43.206;23.550;2023-04-24T07:48:33;96797.56;;;23.30;48.14
21361;BME280;10839;43.206;23.550;2023-04-24T07:50:59;96800.94;;;23.12;48.91
21361;BME280;10839;43.206;23.550;2023-04-24T07:53:25;96802.25;;;22.46;52.89
21361;BME280;10839;43.206;23.550;2023-04-24T07:55:51;96804.97;;;22.51;54.26
21361;BME280;10839;43.206;23.550;2023-04-24T07:58:17;96803.16;;;21.96;56.58
21361;BME280;10839;43.206;23.550;2023-04-24T08:00:42;96794.31;;;22.54;54.80
21361;BME280;10839;43.206;23.550;2023-04-24T08:03:08;96792.66;;;22.43;54.93
21361;BME280;10839;43.206;23.550;2023-04-24T08:05:34;96794.88;;;22.41;55.69
21361;BME280;10839;43.206;23.550;2023-04-24T08:08:00;96797.59;;;22.46;54.64
21361;BME280;10839;43.206;23.550;2023-04-24T08:10:26;96791.66;;;21.99;55.44
21361;BME280;10839;43.206;23.550;2023-04-24T08:12:52;96807.97;;;21.09;59.21
21361;BME280;10839;43.206;23.550;2023-04-24T08:15:18;96805.31;;;21.44;58.23
21361;BME280;10839;43.206;23.550;2023-04-24T08:17:43;96811.16;;;20.86;60.26
21361;BME280;10839;43.206;23.550;2023-04-24T08:20:10;96804.97;;;20.49;62.03
21361;BME280;10839;43.206;23.550;2023-04-24T08:22:40;96794.56;;;19.67;64.63
21361;BME280;10839;43.206;23.550;2023-04-24T08:25:07;96781.28;;;19.44;66.62
21361;BME280;10839;43.206;23.550;2023-04-24T08:27:33;96746.81;;;18.85;69.53
21361;BME280;10839;43.206;23.550;2023-04-24T08:29:59;96729.22;;;17.18;80.13
21361;BME280;10839;43.206;23.550;2023-04-24T08:32:26;96732.00;;;16.62;86.71
21361;BME280;10839;43.206;23.550;2023-04-24T08:34:55;96729.13;;;16.29;91.20
21361;BME280;10839;43.206;23.550;2023-04-24T08:37:22;96737.09;;;16.58;89.46
21361;BME280;10839;43.206;23.550;2023-04-24T08:39:51;96733.00;;;17.17;86.79
21361;BME280;10839;43.206;23.550;2023-04-24T08:42:18;96739.91;;;18.51;79.28
21361;BME280;10839;43.206;23.550;2023-04-24T08:44:44;96739.81;;;19.84;73.48
21361;BME280;10839;43.206;23.550;2023-04-24T08:47:11;96735.75;;;21.45;67.76
21361;BME280;10839;43.206;23.550;2023-04-24T08:49:38;96730.28;;;21.45;64.03
21361;BME280;10839;43.206;23.550;2023-04-24T08:52:07;96723.69;;;21.91;61.59
21361;BME280;10839;43.206;23.550;2023-04-24T08:54:36;96723.53;;;22.51;58.75
21361;BME280;10839;43.206;23.550;2023-04-24T08:57:07;96726.84;;;22.43;55.59
21361;BME280;10839;43.206;23.550;2023-04-24T08:59:33;96729.16;;;23.34;53.56
21361;BME280;10839;43.206;23.550;2023-04-24T09:02:03;96731.56;;;24.31;51.24
21361;BME280;10839;43.206;23.550;2023-04-24T09:04:30;96729.91;;;24.07;46.48
21361;BME280;10839;43.206;23.550;2023-04-24T09:06:58;96735.50;;;23.29;49.01
21361;BME280;10839;43.206;23.550;2023-04-24T09:09:26;96741.59;;;23.60;47.53
21361;BME280;10839;43.206;23.550;2023-04-24T09:11:56;96731.19;;;24.14;47.57
21361;BME280;10839;43.206;23.550;2023-04-24T09:14:23;96727.00;;;23.21;48.51
21361;BME280;10839;43.206;23.550;2023-04-24T09:16:50;96732.78;;;23.91;47.00
21361;BME280;10839;43.206;23.550;2023-04-24T09:19:16;96723.00;;;22.54;47.88
21361;BME280;10839;43.206;23.550;2023-04-24T09:21:45;96730.75;;;23.40;43.70
21361;BME280;10839;43.206;23.550;2023-04-24T09:24:18;96715.13;;;24.73;42.01
21361;BME280;10839;43.206;23.550;2023-04-24T09:26:46;96721.50;;;24.69;40.20
21361;BME280;10839;43.206;23.550;2023-04-24T09:29:16;96706.00;;;24.07;41.83
21361;BME280;10839;43.206;23.550;2023-04-24T09:31:45;96714.75;;;24.09;43.75
21361;BME280;10839;43.206;23.550;2023-04-24T09:34:11;96699.84;;;23.58;44.75
21361;BME280;10839;43.206;23.550;2023-04-24T09:36:39;96707.25;;;23.86;43.96
21361;BME280;10839;43.206;23.550;2023-04-24T09:39:12;96697.22;;;22.99;44.23
21361;BME280;10839;43.206;23.550;2023-04-24T09:41:52;96697.06;;;24.20;42.28
21361;BME280;10839;43.206;23.550;2023-04-24T09:44:21;96700.63;;;23.92;41.85
21361;BME280;10839;43.206;23.550;2023-04-24T09:46:58;96699.72;;;24.72;39.78
21361;BME280;10839;43.206;23.550;2023-04-24T09:49:26;96696.47;;;24.47;39.75
21361;BME280;10839;43.206;23.550;2023-04-24T09:52:08;96691.91;;;26.18;38.15
21361;BME280;10839;43.206;23.550;2023-04-24T09:54:36;96687.31;;;26.68;36.33
21361;BME280;10839;43.206;23.550;2023-04-24T09:57:10;96694.00;;;26.67;36.13
21361;BME280;10839;43.206;23.550;2023-04-24T09:59:42;96699.50;;;26.67;35.69
21361;BME280;10839;43.206;23.550;2023-04-24T10:02:19;96684.38;;;25.08;37.53
21361;BME280;10839;43.206;23.550;2023-04-24T10:05:04;96684.25;;;25.51;36.82
21361;BME280;10839;43.206;23.550;2023-04-24T10:07:32;96677.91;;;26.69;36.52
21361;BME280;10839;43.206;23.550;2023-04-24T10:09:59;96682.31;;;26.56;35.70
21361;BME280;10839;43.206;23.550;2023-04-24T10:12:26;96680.22;;;25.62;36.89
21361;BME280;10839;43.206;23.550;2023-04-24T10:14:52;96675.19;;;25.96;36.36
21361;BME280;10839;43.206;23.550;2023-04-24T10:17:19;96675.84;;;26.88;35.45
21361;BME280;10839;43.206;23.550;2023-04-24T10:19:47;96671.75;;;26.04;35.46
21361;BME280;10839;43.206;23.550;2023-04-24T10:22:15;96666.34;;;25.80;36.42
21361;BME280;10839;43.206;23.550;2023-04-24T10:24:43;96661.94;;;26.79;35.11
21361;BME280;10839;43.206;23.550;2023-04-24T10:27:10;96661.69;;;27.60;33.88
21361;BME280;10839;43.206;23.550;2023-04-24T10:29:38;96668.72;;;26.73;35.02
21361;BME280;10839;43.206;23.550;2023-04-24T10:32:07;96660.06;;;25.93;35.54
21361;BME280;10839;43.206;23.550;2023-04-24T10:34:32;96668.53;;;24.58;36.70
21361;BME280;10839;43.206;23.550;2023-04-24T10:36:58;96665.50;;;25.15;36.69
21361;BME280;10839;43.206;23.550;2023-04-24T10:39:24;96665.97;;;24.20;37.61
21361;BME280;10839;43.206;23.550;2023-04-24T10:41:51;96661.66;;;23.85;38.21
21361;BME280;10839;43.206;23.550;2023-04-24T10:44:16;96666.03;;;24.15;38.21
21361;BME280;10839;43.206;23.550;2023-04-24T10:46:46;96662.97;;;25.00;37.13
21361;BME280;10839;43.206;23.550;2023-04-24T10:49:28;96658.53;;;26.01;36.95
21361;BME280;10839;43.206;23.550;2023-04-24T10:51:54;96658.91;;;26.13;38.52
21361;BME280;10839;43.206;23.550;2023-04-24T10:54:44;96654.19;;;25.36;38.19
21361;BME280;10839;43.206;23.550;2023-04-24T10:57:29;96662.34;;;24.90;38.38
21361;BME280;10839;43.206;23.550;2023-04-24T11:00:16;96661.13;;;24.35;39.09
21361;BME280;10839;43.206;23.550;2023-04-24T11:02:45;96667.66;;;23.92;40.52
21361;BME280;10839;43.206;23.550;2023-04-24T11:05:16;96657.97;;;24.23;40.02
21361;BME280;10839;43.206;23.550;2023-04-24T11:08:14;96659.75;;;24.56;38.82
21361;BME280;10839;43.206;23.550;2023-04-24T11:13:27;96654.81;;;24.77;38.33
21361;BME280;10839;43.206;23.550;2023-04-24T11:16:26;96642.09;;;24.99;37.00
21361;BME280;10839;43.206;23.550;2023-04-24T11:19:09;96645.19;;;24.74;36.87
21361;BME280;10839;43.206;23.550;2023-04-24T11:24:32;96636.72;;;24.71;38.93
21361;BME280;10839;43.206;23.550;2023-04-24T11:27:21;96634.13;;;24.79;39.11
21361;BME280;10839;43.206;23.550;2023-04-24T11:30:02;96627.31;;;25.09;38.68
21361;BME280;10839;43.206;23.550;2023-04-24T11:32:29;96631.44;;;24.74;38.67
21361;BME280;10839;43.206;23.550;2023-04-24T11:37:27;96618.03;;;25.23;37.26
21361;BME280;10839;43.206;23.550;2023-04-24T11:39:57;96613.75;;;24.80;37.98
21361;BME280;10839;43.206;23.550;2023-04-24T11:42:24;96618.91;;;24.45;38.99
21361;BME280;10839;43.206;23.550;2023-04-24T11:44:54;96605.97;;;24.45;38.32
21361;BME280;10839;43.206;23.550;2023-04-24T11:47:30;96607.69;;;24.60;38.26
21361;BME280;10839;43.206;23.550;2023-04-24T11:49:58;96605.75;;;24.60;38.77
21361;BME280;10839;43.206;23.550;2023-04-24T11:52:25;96599.38;;;25.02;38.63
21361;BME280;10839;43.206;23.550;2023-04-24T11:54:51;96604.03;;;25.39;38.47
21361;BME280;10839;43.206;23.550;2023-04-24T11:57:21;96597.75;;;25.79;37.69
21361;BME280;10839;43.206;23.550;2023-04-24T11:59:48;96599.34;;;25.53;37.39
21361;BME280;10839;43.206;23.550;2023-04-24T12:02:32;96595.91;;;24.54;38.07
21361;BME280;10839;43.206;23.550;2023-04-24T12:04:59;96582.75;;;24.51;39.56
21361;BME280;10839;43.206;23.550;2023-04-24T12:07:25;96594.97;;;24.45;43.56
21361;BME280;10839;43.206;23.550;2023-04-24T12:09:58;96605.22;;;24.58;44.93
21361;BME280;10839;43.206;23.550;2023-04-24T12:12:27;96588.34;;;24.04;47.96
21361;BME280;10839;43.206;23.550;2023-04-24T12:14:58;96589.94;;;23.58;49.45
21361;BME280;10839;43.206;23.550;2023-04-24T12:17:28;96591.63;;;23.25;51.84
21361;BME280;10839;43.206;23.550;2023-04-24T12:20:05;96583.34;;;22.97;53.28
21361;BME280;10839;43.206;23.550;2023-04-24T12:22:55;96594.41;;;22.87;53.92
21361;BME280;10839;43.206;23.550;2023-04-24T12:25:24;96593.97;;;22.69;55.67
21361;BME280;10839;43.206;23.550;2023-04-24T12:30:30;96601.38;;;22.20;57.84
21361;BME280;10839;43.206;23.550;2023-04-24T12:32:57;96596.63;;;21.77;60.99
21361;BME280;10839;43.206;23.550;2023-04-24T12:35:26;96591.69;;;21.74;61.88
21361;BME280;10839;43.206;23.550;2023-04-24T12:37:53;96591.94;;;21.83;60.97
21361;BME280;10839;43.206;23.550;2023-04-24T12:40:20;96593.31;;;21.75;61.49
21361;BME280;10839;43.206;23.550;2023-04-24T12:42:48;96589.19;;;21.83;60.90
21361;BME280;10839;43.206;23.550;2023-04-24T12:45:16;96577.00;;;22.19;59.93
21361;BME280;10839;43.206;23.550;2023-04-24T12:47:43;96575.59;;;22.21;60.36
21361;BME280;10839;43.206;23.550;2023-04-24T12:50:14;96566.97;;;22.87;57.16
21361;BME280;10839;43.206;23.550;2023-04-24T12:52:41;96555.50;;;22.36;56.41
21361;BME280;10839;43.206;23.550;2023-04-24T12:55:08;96559.22;;;22.11;57.76
21361;BME280;10839;43.206;23.550;2023-04-24T12:57:37;96552.34;;;22.19;58.94
21361;BME280;10839;43.206;23.550;2023-04-24T13:00:06;96563.06;;;22.10;57.10
21361;BME280;10839;43.206;23.550;2023-04-24T13:02:33;96548.66;;;21.85;56.08
21361;BME280;10839;43.206;23.550;2023-04-24T13:04:59;96562.06;;;21.86;55.16
21361;BME280;10839;43.206;23.550;2023-04-24T13:07:26;96568.63;;;21.90;55.04